Home > Products > Valid Products > TAF

000
FTUS43 KTOP 290146 AAA
TAFTOP
TAF AMD
KTOP 290146Z 2902/2924 19009KT P6SM FEW100
     FM290400 35010KT P6SM VCTS SCT070CB
      TEMPO 2905/2909 VRB10G25KT 4SM TSRA BR BKN040CB
     FM291300 02006KT P6SM SCT040 BKN150=



000
FTUS43 KTOP 290146 AAA
TAFTOP
TAF AMD
KTOP 290146Z 2902/2924 19009KT P6SM FEW100
     FM290400 35010KT P6SM VCTS SCT070CB
      TEMPO 2905/2909 VRB10G25KT 4SM TSRA BR BKN040CB
     FM291300 02006KT P6SM SCT040 BKN150=



000
FTUS43 KTOP 282338
TAFTOP
TAF
KTOP 282338Z 2900/2924 19013G20KT P6SM FEW100
     FM290300 19010KT P6SM VCTS SCT070CB
      TEMPO 2905/2909 VRB15G25KT 4SM TSRA BR BKN040CB
     FM291300 02006KT P6SM SCT040 BKN150=



000
FTUS43 KTOP 281738
TAFTOP
TAF
KTOP 281738Z 2818/2918 19013G19KT P6SM FEW070
     FM290300 19006KT P6SM VCTS SCT070CB
      TEMPO 2904/2908 VRB15G25KT 4SM TSRA BR BKN040CB
     FM291000 02006KT P6SM SCT040 BKN150=



000
FTUS43 KTOP 281352 AAA
TAFTOP
TAF AMD
KTOP 281352Z 2814/2912 19010KT P6SM FEW080
     FM290000 18008KT P6SM VCTS SCT070CB
     FM290300 20007KT P6SM VCTS SCT050CB BKN150
     FM291000 01006KT P6SM SCT025 BKN050=



000
FTUS43 KTOP 281132
TAFTOP
TAF
KTOP 281132Z 2812/2912 18006KT P6SM FEW200
     FM281600 19012G20KT P6SM FEW080
     FM290000 18008KT P6SM VCTS SCT070CB
     FM290300 20007KT P6SM VCTS SCT050CB BKN150
     FM291000 01006KT P6SM SCT025 BKN050=



000
FTUS43 KTOP 280520
TAFTOP
TAF
KTOP 280520Z 2806/2906 16006KT P6SM SCT250
     FM281600 19012G20KT P6SM SCT200
     FM290100 18009KT P6SM SCT050
     FM290500 30007KT P6SM VCTS SCT050CB BKN150=



000
FTUS43 KTOP 272323
TAFTOP
TAF
KTOP 272323Z 2800/2824 16006KT P6SM SCT250
     FM281600 19012G20KT P6SM SCT200=



000
FTUS43 KTOP 272323
TAFTOP
TAF
KTOP 272323Z 2800/2824 16006KT P6SM SCT250
     FM281600 19012G20KT P6SM SCT200=



000
FTUS43 KTOP 271720
TAFTOP
TAF
KTOP 271720Z 2718/2818 16009KT P6SM FEW050 SCT250
     FM280100 17006KT P6SM SCT250=



000
FTUS43 KTOP 271120
TAFTOP
TAF
KTOP 271120Z 2712/2812 16006KT P6SM BKN250
     FM271800 17009KT P6SM FEW050 BKN250
     FM280100 15006KT P6SM SCT250=



000
FTUS43 KTOP 271120
TAFTOP
TAF
KTOP 271120Z 2712/2812 16006KT P6SM BKN250
     FM271800 17009KT P6SM FEW050 BKN250
     FM280100 15006KT P6SM SCT250=



000
FTUS43 KTOP 270520
TAFTOP
TAF
KTOP 270520Z 2706/2806 18004KT P6SM BKN250
     FM271600 18009KT P6SM SCT060 BKN200
     FM280200 15003KT P6SM SCT250=



000
FTUS43 KTOP 270520
TAFTOP
TAF
KTOP 270520Z 2706/2806 18004KT P6SM BKN250
     FM271600 18009KT P6SM SCT060 BKN200
     FM280200 15003KT P6SM SCT250=



000
FTUS43 KTOP 262324
TAFTOP
TAF
KTOP 262324Z 2700/2724 18006KT P6SM SCT250
     FM271600 18011KT P6SM SCT150=



000
FTUS43 KTOP 261722
TAFTOP
TAF
KTOP 261722Z 2618/2718 18008KT P6SM SCT250
     FM271300 20005KT P6SM SCT150=



000
FTUS43 KTOP 261722
TAFTOP
TAF
KTOP 261722Z 2618/2718 18008KT P6SM SCT250
     FM271300 20005KT P6SM SCT150=



000
FTUS43 KTOP 261224 AAA
TAFTOP
TAF AMD
KTOP 261224Z 2612/2712 14006KT P6SM VCTS SCT040CB BKN090
     FM261445 19008KT P6SM SCT100
     FM270100 17004KT P6SM SCT200=



000
FTUS43 KTOP 261120
TAFTOP
TAF
KTOP 261120Z 2612/2712 08006KT P6SM VCTS SCT040CB BKN090
     FM261400 19008KT P6SM SCT100
     FM270100 17004KT P6SM SCT200=



000
FTUS43 KTOP 260649 AAA
TAFTOP
TAF AMD
KTOP 260649Z 2607/2706 11006KT P6SM VCTS BKN090CB
     FM261600 19008KT P6SM SCT060
     FM270300 15004KT P6SM SCT200=



000
FTUS43 KTOP 260520
TAFTOP
TAF
KTOP 260520Z 2606/2706 10005KT P6SM BKN150
     FM261100 12006KT P6SM -SHRA VCTS BKN090CB
     FM261600 19008KT P6SM SCT060
     FM270300 15004KT P6SM SCT200=



    US Dept of Commerce
    National Oceanic and Atmospheric Administration
    National Weather Service
    1325 East West Highway
    Silver Spring, MD 20910
    Page Author: NWS Internet Services Team
Disclaimer
Information Quality
Credits
Glossary
Privacy Policy
Freedom of Information Act (FOIA)
About Us
Career Opportunities